Time;durP1;ratioP1;P1;durP2;ratioP2;P2;SDS_P1;SDS_P2;PMS_P1;PMS_P2;Temp;Humidity;BMP_temperature;BMP_pressure;BME280_temperature;BME280_humidity;BME280_pressure;Samples;Min_cycle;Max_cycle;Signal;HPM_P1;HPM_P2
2022/11/25 00:01:26;;;;;;;72.30;24.57;;;;;;;-0.75;91.19;100237.04;1664772;85;25485;-65
2022/11/25 00:03:56;;;;;;;75.37;22.48;;;;;;;-0.74;91.18;100237.86;1666195;85;25886;-65
2022/11/25 00:06:28;;;;;;;78.87;25.60;;;;;;;-0.73;91.21;100232.32;1699062;83;25711;-65
2022/11/25 00:09:02;;;;;;;71.75;23.00;;;;;;;-0.72;91.30;100237.10;1688718;83;25469;-65
2022/11/25 00:11:35;;;;;;;71.37;22.55;;;;;;;-0.71;91.34;100234.22;1688015;83;27326;-64
2022/11/25 00:14:04;;;;;;;70.40;22.48;;;;;;;-0.70;91.21;100233.16;1681476;83;25963;-65
2022/11/25 00:16:32;;;;;;;76.47;22.82;;;;;;;-0.68;91.12;100247.53;1680475;84;25511;-65
2022/11/25 00:18:58;;;;;;;70.15;21.33;;;;;;;-0.70;91.09;100242.45;1668423;85;25904;-65
2022/11/25 00:21:32;;;;;;;74.85;23.38;;;;;;;-0.68;91.16;100248.36;1666221;84;25846;-65
2022/11/25 00:24:03;;;;;;;66.90;21.60;;;;;;;-0.68;91.15;100242.22;1664044;85;27374;-65
2022/11/25 00:26:34;;;;;;;76.62;22.90;;;;;;;-0.67;91.14;100242.52;1660657;85;25853;-66
2022/11/25 00:29:05;;;;;;;65.75;21.73;;;;;;;-0.68;91.16;100249.69;1665427;84;25492;-65
2022/11/25 00:31:36;;;;;;;75.55;20.92;;;;;;;-0.66;91.08;100246.80;1666814;85;25819;-65
2022/11/25 00:34:04;;;;;;;77.87;22.65;;;;;;;-0.67;91.07;100247.30;1663367;85;25540;-65
2022/11/25 00:36:36;;;;;;;74.37;23.25;;;;;;;-0.66;91.01;100254.77;1665087;85;29539;-65
2022/11/25 00:39:10;;;;;;;69.70;22.45;;;;;;;-0.66;91.08;100260.87;1635464;85;25914;-65
2022/11/25 00:44:38;;;;;;;76.72;22.98;;;;;;;-0.64;91.15;100257.99;1664557;85;25807;-64
2022/11/25 00:47:15;;;;;;;71.62;22.10;;;;;;;-0.65;91.14;100260.35;1666229;84;25837;-65
2022/11/25 00:49:47;;;;;;;61.53;21.35;;;;;;;-0.66;91.05;100259.55;1665708;83;27530;-65
2022/11/25 00:52:18;;;;;;;68.60;21.02;;;;;;;-0.66;91.08;100257.42;1665202;85;25465;-65
2022/11/25 00:54:49;;;;;;;67.85;21.55;;;;;;;-0.66;90.98;100268.05;1660596;85;25563;-65
2022/11/25 00:57:21;;;;;;;70.87;20.90;;;;;;;-0.66;90.97;100265.39;1666022;85;26622;-65
2022/11/25 00:59:47;;;;;;;69.85;20.48;;;;;;;-0.68;90.91;100265.62;1665386;84;25510;-65
2022/11/25 01:02:17;;;;;;;64.87;20.92;;;;;;;-0.69;90.91;100265.33;1665269;85;27327;-65
2022/11/25 01:04:48;;;;;;;63.28;21.17;;;;;;;-0.68;90.95;100266.95;1664793;84;25767;-65
2022/11/25 01:07:17;;;;;;;45.60;12.80;;;;;;;-0.70;90.90;100261.58;1664465;85;30362;-65
2022/11/25 01:09:47;;;;;;;69.58;19.80;;;;;;;-0.72;90.87;100262.34;1661321;85;26421;-65
2022/11/25 01:12:17;;;;;;;63.02;19.42;;;;;;;-0.72;90.86;100263.14;1665293;85;25569;-65
2022/11/25 01:14:46;;;;;;;65.50;20.50;;;;;;;-0.72;90.94;100259.69;1667338;85;27315;-65
2022/11/25 01:17:14;;;;;;;64.63;21.13;;;;;;;-0.72;90.95;100263.14;1654720;83;25497;-66
2022/11/25 01:19:41;;;;;;;44.25;13.60;;;;;;;-0.72;90.97;100258.35;1667448;85;25490;-66
2022/11/25 01:22:11;;;;;;;62.90;18.75;;;;;;;-0.72;90.90;100265.00;1667077;85;25986;-66
2022/11/25 01:24:38;;;;;;;59.85;19.57;;;;;;;-0.73;90.84;100265.52;1665842;85;25512;-65
2022/11/25 01:27:04;;;;;;;61.73;19.35;;;;;;;-0.73;90.88;100267.35;1665733;85;27350;-66
2022/11/25 01:29:30;;;;;;;64.27;21.48;;;;;;;-0.74;90.89;100268.41;1666783;85;25629;-65
2022/11/25 01:31:58;;;;;;;65.05;20.37;;;;;;;-0.78;90.86;100264.89;1665217;85;25437;-66
2022/11/25 01:34:30;;;;;;;58.48;19.45;;;;;;;-0.76;90.90;100273.42;1663898;84;26421;-66
2022/11/25 01:36:57;;;;;;;57.85;20.77;;;;;;;-0.76;90.95;100276.08;1666273;85;25856;-66
2022/11/25 01:39:26;;;;;;;63.20;19.98;;;;;;;-0.75;90.97;100283.52;1664605;84;27484;-67
2022/11/25 01:41:52;;;;;;;64.32;20.20;;;;;;;-0.74;90.99;100283.82;1666984;85;27320;-65
2022/11/25 01:44:24;;;;;;;68.78;19.48;;;;;;;-0.78;90.88;100277.37;1665629;85;25954;-66
2022/11/25 01:47:23;;;;;;;60.45;19.00;;;;;;;-0.78;90.91;100278.17;1666744;85;25841;-66
2022/11/25 01:50:03;;;;;;;57.17;18.60;;;;;;;-0.78;90.93;100279.50;1660094;85;25899;-67
2022/11/25 01:52:34;;;;;;;61.10;19.80;;;;;;;-0.79;90.90;100284.52;1667286;85;27711;-67
2022/11/25 01:55:15;;;;;;;60.85;18.67;;;;;;;-0.79;90.91;100281.06;1663590;85;25547;-67
2022/11/25 01:57:47;;;;;;;58.25;18.20;;;;;;;-0.79;90.90;100292.48;1692441;83;25510;-67
2022/11/25 02:00:16;;;;;;;62.33;19.00;;;;;;;-0.80;90.91;100290.06;1652593;85;25662;-66
2022/11/25 02:02:45;;;;;;;57.35;18.05;;;;;;;-0.82;90.98;100283.67;1652465;85;25929;-66
2022/11/25 02:05:19;;;;;;;65.45;19.17;;;;;;;-0.80;90.96;100289.56;1658162;85;27348;-66
2022/11/25 02:07:48;;;;;;;56.73;16.42;;;;;;;-0.79;90.94;100287.17;1640265;85;25658;-66
2022/11/25 02:10:29;;;;;;;55.50;16.65;;;;;;;-0.79;90.86;100289.03;1656917;86;25842;-65
2022/11/25 02:12:59;;;;;;;60.38;18.40;;;;;;;-0.79;90.86;100296.47;1690150;83;26059;-65
2022/11/25 02:15:29;;;;;;;63.23;20.65;;;;;;;-0.80;90.82;100290.06;1695583;83;25474;-65
2022/11/25 02:17:55;;;;;;;60.35;17.75;;;;;;;-0.80;90.88;100293.54;1679400;84;27863;-65
2022/11/25 02:20:24;;;;;;;59.10;18.32;;;;;;;-0.82;90.87;100288.16;1665627;85;25518;-66
2022/11/25 02:23:17;;;;;;;56.68;17.62;;;;;;;-0.81;90.87;100292.45;1664594;85;28434;-66
2022/11/25 02:25:45;;;;;;;58.55;18.65;;;;;;;-0.82;90.96;100295.63;1665600;85;25943;-66
2022/11/25 02:28:17;;;;;;;68.87;18.00;;;;;;;-0.82;90.98;100299.61;1666819;85;25529;-66
2022/11/25 02:30:46;;;;;;;65.45;19.25;;;;;;;-0.83;91.02;100295.86;1665096;85;27316;-66
2022/11/25 02:33:15;;;;;;;59.27;18.37;;;;;;;-0.84;91.06;100292.38;1665709;84;25856;-66
2022/11/25 02:35:55;;;;;;;68.22;20.48;;;;;;;-0.83;91.11;100289.22;1659622;85;25813;-66
2022/11/25 02:38:42;;;;;;;63.25;21.15;;;;;;;-0.84;91.06;100288.39;1699755;83;25896;-66
2022/11/25 02:41:19;;;;;;;61.95;18.55;;;;;;;-0.84;91.07;100291.58;1689831;84;25825;-66
2022/11/25 02:43:48;;;;;;;60.88;18.20;;;;;;;-0.85;91.03;100286.80;1680745;83;27338;-66
2022/11/25 02:46:18;;;;;;;47.13;13.15;;;;;;;-0.85;91.08;100293.43;1670944;85;25912;-66
2022/11/25 02:48:46;;;;;;;63.48;19.00;;;;;;;-0.85;91.06;100288.13;1659955;85;25498;-66
2022/11/25 02:51:17;;;;;;;69.30;19.27;;;;;;;-0.84;91.05;100291.58;1671432;84;26177;-66
2022/11/25 02:53:46;;;;;;;62.55;19.37;;;;;;;-0.84;91.09;100292.91;1702438;83;25611;-66
2022/11/25 02:56:15;;;;;;;59.10;18.10;;;;;;;-0.82;91.18;100290.81;1687581;83;27432;-65
2022/11/25 02:58:43;;;;;;;;;;;;;;;-0.83;91.17;100288.69;1666800;85;25809;-65
2022/11/25 03:01:12;;;;;;;59.13;16.60;;;;;;;-0.83;91.17;100292.67;1663567;85;25584;-65
2022/11/25 03:03:40;;;;;;;60.35;19.23;;;;;;;-0.83;91.14;100286.03;1661232;85;25903;-65
2022/11/25 03:06:08;;;;;;;57.33;17.65;;;;;;;-0.83;91.22;100288.69;1663144;85;25482;-65
2022/11/25 03:08:37;;;;;;;55.38;17.65;;;;;;;-0.83;91.12;100287.36;1666648;85;27542;-66
2022/11/25 03:11:05;;;;;;;64.55;18.52;;;;;;;-0.84;91.04;100296.36;1663616;85;25502;-66
2022/11/25 03:13:34;;;;;;;75.40;20.33;;;;;;;-0.82;90.99;100300.11;1659399;85;25607;-66
2022/11/25 03:16:00;;;;;;;71.62;20.15;;;;;;;-0.83;91.07;100301.17;1661372;85;26633;-66
2022/11/25 03:18:28;;;;;;;61.80;20.50;;;;;;;-0.83;91.11;100308.61;1666580;85;25544;-66
2022/11/25 03:20:56;;;;;;;71.15;21.95;;;;;;;-0.82;91.15;100304.09;1666000;85;27325;-66
2022/11/25 03:23:24;;;;;;;70.70;21.90;;;;;;;-0.82;91.21;100307.58;1655118;85;25711;-66
2022/11/25 03:25:51;;;;;;;70.50;21.87;;;;;;;-0.82;91.26;100303.59;1663351;85;25500;-66
2022/11/25 03:28:19;;;;;;;80.03;23.38;;;;;;;-0.81;91.25;100306.52;1662748;85;25819;-66
2022/11/25 03:30:45;;;;;;;66.87;19.50;;;;;;;-0.82;91.25;100307.58;1667036;85;25498;-66
2022/11/25 03:33:13;;;;;;;73.67;21.17;;;;;;;-0.81;91.20;100309.18;1657105;85;28141;-66
2022/11/25 03:35:39;;;;;;;65.83;19.62;;;;;;;-0.81;91.16;100309.18;1662780;85;25455;-66
2022/11/25 03:38:05;;;;;;;65.35;19.55;;;;;;;-0.80;91.11;100316.12;1664207;85;25425;-65
2022/11/25 03:40:31;;;;;;;75.72;20.82;;;;;;;-0.79;91.10;100316.91;1666476;85;25593;-66
2022/11/25 03:43:00;;;;;;;71.35;21.00;;;;;;;-0.80;91.18;100313.46;1666870;85;25838;-66
2022/11/25 03:45:26;;;;;;;68.25;21.87;;;;;;;-0.79;91.16;100314.26;1664427;85;28147;-66
2022/11/25 03:47:52;;;;;;;70.03;22.62;;;;;;;-0.79;91.23;100324.35;1661965;85;25634;-66
2022/11/25 03:50:18;;;;;;;69.37;20.92;;;;;;;-0.79;91.21;100316.39;1664695;85;25552;-66
2022/11/25 03:52:45;;;;;;;75.12;21.33;;;;;;;-0.78;91.17;100319.34;1665789;85;26183;-66
2022/11/25 03:55:11;;;;;;;85.10;21.35;;;;;;;-0.79;91.13;100321.70;1658679;85;25850;-66
2022/11/25 03:57:41;;;;;;;64.62;18.35;;;;;;;-0.78;91.08;100324.66;1660985;85;27340;-66
2022/11/25 04:00:11;;;;;;;65.72;21.95;;;;;;;-0.79;91.00;100324.89;1660498;85;26396;-66
2022/11/25 04:02:37;;;;;;;62.43;20.35;;;;;;;-0.78;90.96;100330.50;1664125;85;25886;-66
2022/11/25 04:05:08;;;;;;;72.27;21.33;;;;;;;-0.77;90.95;100334.25;1620915;87;26093;-66
2022/11/25 04:07:35;;;;;;;78.00;21.05;;;;;;;-0.79;90.81;100332.33;1653071;86;25828;-67
2022/11/25 04:10:01;;;;;;;63.10;19.52;;;;;;;-0.80;90.84;100333.88;1680298;84;27385;-66
2022/11/25 04:12:45;;;;;;;66.07;19.37;;;;;;;-0.82;90.78;100335.47;1666845;85;25613;-66
2022/11/25 04:14:59;;;;;;;77.82;20.65;;;;;;;-0.84;90.85;100338.05;1661193;85;25906;-66
2022/11/25 04:17:25;;;;;;;82.45;23.38;;;;;;;-0.86;90.82;100337.48;1664215;85;25901;-66
2022/11/25 04:19:54;;;;;;;78.28;20.97;;;;;;;-0.86;90.80;100338.81;1664935;85;25893;-66
2022/11/25 04:22:20;;;;;;;56.95;15.13;;;;;;;-0.89;90.83;100337.41;1666338;85;27364;-66
2022/11/25 04:24:46;;;;;;;77.03;19.63;;;;;;;-0.88;90.89;100348.34;1666032;85;29706;-66
2022/11/25 04:27:12;;;;;;;78.25;19.05;;;;;;;-0.89;90.92;100353.34;1666596;85;25546;-66
2022/11/25 04:29:38;;;;;;;83.22;21.48;;;;;;;-0.89;91.08;100352.55;1663775;85;25663;-65
2022/11/25 04:32:04;;;;;;;79.50;19.25;;;;;;;-0.90;91.09;100355.73;1664420;85;26040;-65
2022/11/25 04:34:31;;;;;;;77.22;21.65;;;;;;;-0.90;91.13;100355.73;1667162;85;27772;-66
2022/11/25 04:36:57;;;;;;;83.72;20.32;;;;;;;-0.91;91.19;100358.61;1663548;85;25846;-66
2022/11/25 04:39:23;;;;;;;79.32;21.15;;;;;;;-0.91;91.33;100362.07;1665432;85;25531;-66
2022/11/25 04:42:30;;;;;;;75.35;20.80;;;;;;;-0.91;91.39;100365.25;1667102;85;29151;-65
2022/11/25 04:44:18;;;;;;;78.65;21.57;;;;;;;-0.92;91.40;100367.08;1662772;84;25825;-66
2022/11/25 04:46:46;;;;;;;83.70;23.07;;;;;;;-0.92;91.47;100366.28;1665025;83;27323;-65
2022/11/25 04:49:12;;;;;;;72.00;20.17;;;;;;;-0.92;91.56;100364.95;1665145;85;25645;-66
2022/11/25 04:51:38;;;;;;;80.38;21.33;;;;;;;-0.92;91.48;100368.41;1664982;85;25568;-65
2022/11/25 04:54:06;;;;;;;82.37;21.52;;;;;;;-0.94;91.47;100369.16;1664663;85;26197;-65
2022/11/25 04:56:33;;;;;;;76.30;21.65;;;;;;;-0.96;91.42;100373.91;1665611;85;25479;-65
2022/11/25 05:01:45;;;;;;;77.75;19.80;;;;;;;-1.00;91.58;100372.23;1666941;84;25898;-65
2022/11/25 05:04:11;;;;;;;64.00;19.12;;;;;;;-0.99;91.67;100375.69;1665306;84;25893;-65
2022/11/25 05:06:37;;;;;;;81.32;20.77;;;;;;;-0.98;91.82;100379.44;1665260;85;25642;-65
2022/11/25 05:09:06;;;;;;;73.15;21.77;;;;;;;-0.98;91.83;100381.30;1664526;85;25577;-65
2022/11/25 05:11:32;;;;;;;92.17;19.55;;;;;;;-0.99;91.82;100383.65;1665997;85;27299;-65
2022/11/25 05:13:58;;;;;;;87.60;21.80;;;;;;;-0.98;91.90;100383.95;1667042;85;25948;-66
2022/11/25 05:16:24;;;;;;;74.58;19.77;;;;;;;-0.99;91.79;100389.80;1667073;85;25520;-65
2022/11/25 05:18:56;;;;;;;75.83;19.55;;;;;;;-0.98;91.88;100389.27;1665175;85;25682;-65
2022/11/25 05:21:24;;;;;;;77.60;19.05;;;;;;;-0.95;91.95;100396.78;1664905;85;25805;-66
2022/11/25 05:23:50;;;;;;;71.33;20.25;;;;;;;-0.99;91.81;100387.14;1664133;85;27319;-66
2022/11/25 05:26:16;;;;;;;78.65;20.30;;;;;;;-0.99;91.77;100395.10;1664984;84;25807;-66
2022/11/25 05:28:42;;;;;;;75.32;21.33;;;;;;;-0.98;91.90;100390.59;1665236;85;25639;-66
2022/11/25 05:31:08;;;;;;;84.32;21.12;;;;;;;-0.98;92.02;100390.06;1666847;85;34742;-65
2022/11/25 05:33:34;;;;;;;70.57;19.87;;;;;;;-0.97;91.96;100390.86;1664938;85;25442;-65
2022/11/25 05:36:05;;;;;;;86.70;21.50;;;;;;;-0.97;91.96;100398.83;1665707;85;26553;-66
2022/11/25 05:38:31;;;;;;;86.70;21.93;;;;;;;-0.98;92.04;100396.70;1664511;85;25833;-65
2022/11/25 05:41:03;;;;;;;89.10;20.72;;;;;;;-0.98;92.11;100392.72;1665952;85;25513;-65
2022/11/25 05:43:29;;;;;;;93.45;21.33;;;;;;;-0.97;91.97;100393.52;1665343;85;25825;-66
2022/11/25 05:45:58;;;;;;;77.90;20.40;;;;;;;-0.96;92.11;100396.47;1666683;85;25784;-66
2022/11/25 05:48:24;;;;;;;86.00;21.95;;;;;;;-0.96;92.18;100403.91;1665313;85;27487;-66
2022/11/25 05:50:50;;;;;;;80.47;19.95;;;;;;;-0.99;92.13;100399.58;1664277;85;25496;-65
2022/11/25 05:53:16;;;;;;;82.42;19.05;;;;;;;-0.99;92.18;100398.25;1665697;85;26196;-65
2022/11/25 05:55:48;;;;;;;79.92;21.12;;;;;;;-0.99;92.31;100402.23;1663981;85;25713;-65
2022/11/25 05:58:14;;;;;;;96.35;21.62;;;;;;;-1.00;92.35;100404.09;1676701;84;25854;-65
2022/11/25 06:00:42;;;;;;;87.08;23.07;;;;;;;-0.99;92.47;100406.22;1659196;85;27351;-66
2022/11/25 06:03:08;;;;;;;87.33;20.52;;;;;;;-0.97;92.53;100409.45;1662871;85;25854;-66
2022/11/25 06:05:35;;;;;;;78.83;21.42;;;;;;;-0.98;92.52;100406.52;1664537;85;25469;-66
2022/11/25 06:08:01;;;;;;;83.87;20.45;;;;;;;-0.99;92.53;100411.53;1664040;85;25838;-66
2022/11/25 06:10:28;;;;;;;98.17;22.45;;;;;;;-0.98;92.60;100415.29;1659252;85;25845;-65
2022/11/25 06:12:54;;;;;;;79.25;20.17;;;;;;;-1.00;92.64;100413.39;1664644;85;27354;-65
2022/11/25 06:15:20;;;;;;;86.17;20.92;;;;;;;-0.99;92.63;100413.69;1662044;85;25590;-64
2022/11/25 06:17:46;;;;;;;87.40;21.23;;;;;;;-0.99;92.58;100420.33;1664116;85;25504;-65
2022/11/25 06:20:15;;;;;;;89.42;20.92;;;;;;;-1.00;92.66;100422.69;1664777;85;33961;-66
2022/11/25 06:22:41;;;;;;;86.75;23.00;;;;;;;-0.99;92.76;100421.66;1664631;85;25483;-65
2022/11/25 06:25:10;;;;;;;94.10;20.72;;;;;;;-0.98;92.87;100423.78;1661747;85;27390;-66
2022/11/25 06:27:36;;;;;;;82.90;20.05;;;;;;;-0.97;92.88;100418.25;1666239;84;25872;-66
2022/11/25 06:30:06;;;;;;;81.30;21.33;;;;;;;-0.96;92.92;100424.36;1663087;85;25736;-66
2022/11/25 06:32:32;;;;;;;83.58;21.62;;;;;;;-0.96;92.94;100419.05;1663202;85;25861;-65
2022/11/25 06:34:59;;;;;;;99.13;24.90;;;;;;;-0.99;93.00;100424.31;1662443;85;25810;-65
2022/11/25 06:37:27;;;;;;;94.17;22.50;;;;;;;-0.95;92.99;100424.66;1663071;85;27381;-65
2022/11/25 06:39:53;;;;;;;91.87;23.47;;;;;;;-0.95;93.05;100428.64;1665335;85;25628;-65
2022/11/25 06:42:20;;;;;;;82.00;22.10;;;;;;;-0.95;93.12;100429.97;1660174;85;25865;-64
2022/11/25 06:44:46;;;;;;;102.92;25.82;;;;;;;-0.97;93.20;100426.21;1663077;85;25837;-66
2022/11/25 06:47:15;;;;;;;82.45;24.77;;;;;;;-0.95;93.31;100429.44;1668074;85;25436;-66
2022/11/25 06:49:41;;;;;;;108.37;26.35;;;;;;;-0.92;93.41;100428.16;1663681;85;27407;-66
2022/11/25 06:52:07;;;;;;;96.90;22.85;;;;;;;-0.93;93.37;100426.56;1666091;85;25854;-66
2022/11/25 06:54:33;;;;;;;89.42;23.30;;;;;;;-0.95;93.32;100429.44;1665643;85;25944;-66
2022/11/25 06:56:59;;;;;;;95.15;23.83;;;;;;;-0.94;93.35;100435.55;1665029;85;26002;-66
2022/11/25 06:59:25;;;;;;;97.50;23.42;;;;;;;-0.95;93.43;100436.08;1663955;84;26803;-66
2022/11/25 07:01:52;;;;;;;99.72;26.50;;;;;;;-0.92;93.60;100446.75;1680196;84;27360;-67
2022/11/25 07:04:18;;;;;;;115.05;25.05;;;;;;;-0.89;93.73;100441.52;1672151;83;25877;-66
2022/11/25 07:06:44;;;;;;;99.85;25.25;;;;;;;-0.87;93.77;100442.92;1667389;85;25637;-66
2022/11/25 07:09:10;;;;;;;98.45;25.88;;;;;;;-0.86;93.86;100445.05;1665564;85;25668;-66
2022/11/25 07:11:40;;;;;;;95.45;25.02;;;;;;;-0.83;93.83;100444.59;1665046;85;25896;-67
2022/11/25 07:14:11;;;;;;;95.35;26.02;;;;;;;-0.85;93.77;100444.82;1666392;85;27344;-67
2022/11/25 07:16:41;;;;;;;97.67;24.65;;;;;;;-0.83;93.88;100447.25;1664693;85;25836;-67
2022/11/25 07:19:10;;;;;;;105.87;26.25;;;;;;;-0.82;93.93;100448.35;1666211;85;25908;-67
2022/11/25 07:21:38;;;;;;;109.30;28.42;;;;;;;-0.79;94.07;100449.72;1654613;85;25791;-67
2022/11/25 07:24:09;;;;;;;101.12;25.88;;;;;;;-0.78;94.04;100447.37;1666819;85;25834;-67
2022/11/25 07:26:39;;;;;;;120.87;29.98;;;;;;;-0.80;93.91;100450.25;1665401;85;27369;-67
2022/11/25 07:29:13;;;;;;;113.28;28.15;;;;;;;-0.77;94.06;100455.11;1665959;84;25870;-69
2022/11/25 07:31:44;;;;;;;103.25;27.20;;;;;;;-0.74;94.22;100460.47;1666236;85;25697;-66
2022/11/25 07:34:20;;;;;;;108.70;26.97;;;;;;;-0.70;94.39;100454.17;1665022;85;26843;-66
2022/11/25 07:36:47;;;;;;;103.05;27.52;;;;;;;-0.68;94.39;100454.75;1664311;85;25489;-67
2022/11/25 07:39:22;;;;;;;116.55;27.98;;;;;;;-0.67;94.44;100459.83;1665827;85;27335;-66
2022/11/25 07:41:52;;;;;;;109.37;27.62;;;;;;;-0.64;94.45;100460.70;1666278;84;25818;-66
2022/11/25 07:44:19;;;;;;;112.40;28.15;;;;;;;-0.60;94.49;100465.04;1661432;85;25641;-67
2022/11/25 07:46:48;;;;;;;107.87;28.47;;;;;;;-0.59;94.58;100464.81;1665141;85;25862;-67
2022/11/25 07:49:19;;;;;;;102.60;26.85;;;;;;;-0.55;94.52;100469.14;1666662;85;25842;-66
2022/11/25 07:51:54;;;;;;;105.00;26.50;;;;;;;-0.52;94.73;100467.36;1663010;85;29515;-67
2022/11/25 07:54:22;;;;;;;111.47;29.15;;;;;;;-0.49;94.61;100463.44;1668189;85;25680;-67
2022/11/25 07:56:50;;;;;;;107.10;26.68;;;;;;;-0.45;94.64;100467.24;1665486;85;25526;-67
2022/11/25 07:59:21;;;;;;;74.10;19.75;;;;;;;-0.41;94.73;100465.73;1665991;85;26695;-69
2022/11/25 08:01:53;;;;;;;102.35;27.75;;;;;;;-0.40;94.61;100466.83;1663901;85;25693;-66
2022/11/25 08:04:23;;;;;;;96.85;27.52;;;;;;;-0.39;94.46;100468.98;1676495;83;27465;-68
2022/11/25 08:06:52;;;;;;;103.25;28.77;;;;;;;-0.35;94.68;100465.34;1696320;83;25506;-67
2022/11/25 08:09:23;;;;;;;121.40;28.98;;;;;;;-0.33;94.53;100466.71;1680775;84;25772;-68
2022/11/25 08:11:52;;;;;;;109.17;28.85;;;;;;;-0.31;94.54;100469.94;1678863;83;26067;-66
2022/11/25 08:14:20;;;;;;;99.83;28.12;;;;;;;-0.29;94.56;100469.71;1685871;84;25629;-66
2022/11/25 08:16:49;;;;;;;105.95;27.82;;;;;;;-0.28;94.50;100473.47;1687720;83;27431;-67
2022/11/25 08:19:17;;;;;;;110.15;28.10;;;;;;;-0.23;94.65;100480.76;1666151;85;25870;-67
2022/11/25 08:21:46;;;;;;;94.92;25.62;;;;;;;-0.21;94.58;100468.83;1657972;86;25606;-69
2022/11/25 08:24:19;;;;;;;100.00;26.97;;;;;;;-0.22;94.17;100477.07;1667570;85;25845;-68
2022/11/25 08:26:49;;;;;;;101.50;28.92;;;;;;;-0.21;94.31;100478.14;1660446;84;25479;-68
2022/11/25 08:29:19;;;;;;;106.72;26.50;;;;;;;-0.16;94.70;100485.95;1665227;85;28044;-67
2022/11/25 08:31:47;;;;;;;;;;;;;;;-0.11;94.92;100493.52;1666797;84;25989;-68
2022/11/25 08:34:21;;;;;;;77.95;24.05;;;;;;;-0.06;94.90;100491.49;1659099;85;25676;-67
2022/11/25 08:36:47;;;;;;;84.15;25.48;;;;;;;-0.04;94.76;100487.55;1664112;85;26271;-68
2022/11/25 08:39:17;;;;;;;96.28;26.65;;;;;;;0.01;94.97;100492.17;1661610;85;25466;-67
2022/11/25 08:41:43;;;;;;;;;;;;;;;0.04;94.94;100493.04;1663625;85;27425;-66
2022/11/25 08:44:12;;;;;;;78.73;22.97;;;;;;;0.05;94.66;100494.67;1662249;85;30265;-67
2022/11/25 08:46:41;;;;;;;75.50;22.93;;;;;;;0.08;94.60;100489.39;1699255;83;25440;-67
2022/11/25 08:49:08;;;;;;;78.95;22.52;;;;;;;0.11;94.50;100492.38;1699261;83;25844;-68
2022/11/25 08:51:38;;;;;;;72.72;23.85;;;;;;;0.13;94.61;100496.14;1671551;84;25909;-67
2022/11/25 08:54:08;;;;;;;84.50;25.90;;;;;;;0.11;94.12;100499.03;1672748;84;27379;-67
2022/11/25 08:56:36;;;;;;;66.82;22.65;;;;;;;0.11;93.93;100507.02;1676122;84;25917;-67
2022/11/25 08:59:05;;;;;;;78.12;23.20;;;;;;;0.12;94.18;100508.64;1648121;85;25825;-68
2022/11/25 09:01:33;;;;;;;64.30;20.60;;;;;;;0.13;94.19;100502.80;1645204;86;25735;-68
2022/11/25 09:04:01;;;;;;;52.90;20.02;;;;;;;0.14;94.02;100508.41;1642043;85;25831;-67
2022/11/25 09:06:28;;;;;;;59.25;20.37;;;;;;;0.11;93.75;100511.00;1656610;85;27515;-67
2022/11/25 09:08:58;;;;;;;62.62;21.12;;;;;;;0.12;94.00;100511.80;1656642;86;25434;-67
2022/11/25 09:11:27;;;;;;;60.95;20.23;;;;;;;0.13;94.03;100513.44;1643552;85;25905;-67
2022/11/25 09:13:54;;;;;;;68.83;22.35;;;;;;;0.14;94.02;100516.39;1703253;83;25692;-67
2022/11/25 09:16:21;;;;;;;69.37;21.60;;;;;;;0.15;94.01;100516.66;1687818;83;25536;-67
2022/11/25 09:18:49;;;;;;;63.87;20.40;;;;;;;0.15;94.00;100520.16;1680121;83;27868;-68
2022/11/25 09:21:17;;;;;;;67.35;22.70;;;;;;;0.14;93.90;100513.20;1693894;83;26118;-67
2022/11/25 09:23:45;;;;;;;69.27;22.02;;;;;;;0.15;93.96;100517.49;1645926;85;25512;-66
2022/11/25 09:26:17;;;;;;;62.95;21.37;;;;;;;0.18;94.03;100518.33;1630239;86;25856;-67
2022/11/25 09:28:43;;;;;;;81.12;22.58;;;;;;;0.18;93.92;100518.86;1676144;83;25836;-67
2022/11/25 09:31:09;;;;;;;80.05;23.32;;;;;;;0.19;93.93;100519.16;1680943;84;27366;-66
2022/11/25 09:33:37;;;;;;;74.35;23.62;;;;;;;0.20;93.80;100514.64;1690506;83;25781;-71
2022/11/25 09:36:06;;;;;;;77.17;23.67;;;;;;;0.22;94.02;100523.19;1708651;83;25921;-68
2022/11/25 09:38:32;;;;;;;74.70;24.40;;;;;;;0.23;93.95;100522.16;1685258;83;25729;-68
2022/11/25 09:47:36;;;;;;;70.22;22.25;;;;;;;0.18;93.57;100520.99;1660720;85;25866;-68
2022/11/25 09:50:37;;;;;;;70.57;21.55;;;;;;;0.19;93.80;100520.49;1631753;86;25912;-66
2022/11/25 09:53:23;;;;;;;66.53;20.85;;;;;;;0.20;93.87;100518.63;1680511;84;26005;-67
2022/11/25 09:55:55;;;;;;;71.42;21.57;;;;;;;0.16;93.50;100515.63;1669771;84;25467;-68
2022/11/25 09:58:27;;;;;;;81.65;23.10;;;;;;;0.16;93.68;100514.30;1649024;85;28001;-71
2022/11/25 10:00:55;;;;;;;78.20;23.90;;;;;;;0.15;93.67;100515.33;1687007;83;25624;-68
2022/11/25 10:03:48;;;;;;;72.90;21.75;;;;;;;0.11;93.47;100518.98;1658355;85;25853;-69
2022/11/25 10:06:23;;;;;;;74.25;21.93;;;;;;;0.07;93.41;100525.83;1656065;85;25850;-69
2022/11/25 10:08:57;;;;;;;76.85;21.95;;;;;;;0.03;93.51;100533.17;1673793;83;25851;-67
2022/11/25 10:11:31;;;;;;;78.92;22.58;;;;;;;0.05;93.83;100532.41;1662560;85;27343;-71
2022/11/25 10:14:11;;;;;;;74.67;23.00;;;;;;;0.05;93.89;100531.91;1672943;83;25529;-71
2022/11/25 10:17:04;;;;;;;75.03;20.32;;;;;;;0.04;93.85;100539.59;1670780;84;25831;-71
2022/11/25 10:20:00;;;;;;;68.60;19.30;;;;;;;0.05;94.00;100539.89;1686688;83;25961;-70
2022/11/25 10:22:35;;;;;;;68.57;21.27;;;;;;;0.02;93.87;100542.17;1633697;86;25651;-71
2022/11/25 10:25:24;;;;;;;75.92;22.65;;;;;;;-0.03;93.70;100546.88;1653099;85;27524;-71
2022/11/25 10:28:01;;;;;;;66.77;21.73;;;;;;;-0.11;93.71;100541.38;1639548;85;25479;-70
2022/11/25 10:31:05;;;;;;;68.00;23.22;;;;;;;-0.08;93.91;100546.77;1651947;86;25904;-70
2022/11/25 10:33:49;;;;;;;68.07;20.72;;;;;;;-0.10;94.04;100545.67;1679470;84;26246;-69
2022/11/25 10:36:30;;;;;;;70.57;23.47;;;;;;;-0.08;94.13;100556.08;1681251;83;25820;-68
2022/11/25 10:39:23;;;;;;;68.37;23.40;;;;;;;-0.10;94.16;100548.83;1646958;85;27356;-69
2022/11/25 10:42:02;;;;;;;75.70;23.90;;;;;;;-0.08;94.29;100554.22;1641460;84;25830;-68
2022/11/25 10:44:32;;;;;;;80.75;25.20;;;;;;;-0.09;94.20;100551.26;1702972;83;25889;-69
2022/11/25 10:47:10;;;;;;;67.87;22.85;;;;;;;-0.11;94.17;100553.34;1689187;83;25755;-70
2022/11/25 10:50:17;;;;;;;84.77;23.60;;;;;;;-0.10;94.26;100549.66;1681329;83;25911;-69
2022/11/25 10:52:57;;;;;;;76.77;22.67;;;;;;;-0.10;94.27;100556.80;1694419;83;28062;-68
2022/11/25 10:55:31;;;;;;;74.65;23.38;;;;;;;-0.10;94.24;100557.63;1681938;83;25855;-67
2022/11/25 10:58:01;;;;;;;78.92;21.55;;;;;;;-0.11;94.31;100561.33;1654463;85;25474;-68
2022/11/25 11:00:33;;;;;;;70.50;22.37;;;;;;;-0.12;94.31;100555.73;1671836;84;25948;-77
2022/11/25 11:03:16;;;;;;;74.67;23.27;;;;;;;-0.13;94.42;100551.44;1664380;85;25507;-72
2022/11/25 11:05:52;;;;;;;76.65;23.77;;;;;;;-0.08;94.53;100557.41;1656551;84;27345;-72
2022/11/25 11:08:23;;;;;;;65.10;22.22;;;;;;;-0.07;94.71;100559.84;1659114;85;25463;-71
2022/11/25 11:11:16;;;;;;;65.25;22.07;;;;;;;-0.06;94.69;100557.45;1683412;84;25534;-71
2022/11/25 11:13:46;;;;;;;80.38;24.02;;;;;;;-0.04;94.82;100554.03;1699618;83;25671;-76
2022/11/25 11:16:30;;;;;;;75.62;24.02;;;;;;;-0.03;94.67;100556.98;1661781;85;33127;-75
2022/11/25 11:18:57;;;;;;;75.70;23.85;;;;;;;-0.02;94.43;100563.11;1657399;85;28083;-70
2022/11/25 11:21:32;;;;;;;76.00;23.70;;;;;;;-0.04;94.36;100555.36;1686089;83;25470;-71
2022/11/25 11:23:59;;;;;;;87.05;26.55;;;;;;;-0.03;94.36;100556.19;1692128;83;26158;-71
2022/11/25 11:26:31;;;;;;;77.12;23.85;;;;;;;-0.04;94.32;100555.89;1691160;83;26273;-72
2022/11/25 11:29:18;;;;;;;86.57;24.57;;;;;;;-0.05;94.43;100556.42;1698229;84;25785;-74
2022/11/25 11:31:50;;;;;;;78.72;24.40;;;;;;;-0.02;94.52;100555.13;1692299;83;27492;-77
2022/11/25 11:34:45;;;;;;;80.80;25.62;;;;;;;0.00;94.63;100557.06;1702415;83;25779;-76
2022/11/25 11:37:20;;;;;;;73.80;23.22;;;;;;;-0.02;94.55;100558.63;1657605;84;25803;-72